sensor_id;sensor_type;location;lat;lon;timestamp;P1;durP1;ratioP1;P2;durP2;ratioP2
57331;SDS011;43164;50.908;18.092;2023-03-24T00:01:18;9.20;;;2.80;;
57331;SDS011;43164;50.908;18.092;2023-03-24T00:03:46;8.20;;;3.20;;
57331;SDS011;43164;50.908;18.092;2023-03-24T00:06:21;7.80;;;2.50;;
57331;SDS011;43164;50.908;18.092;2023-03-24T00:08:47;6.50;;;2.40;;
57331;SDS011;43164;50.908;18.092;2023-03-24T00:11:15;5.30;;;2.30;;
57331;SDS011;43164;50.908;18.092;2023-03-24T00:13:44;8.70;;;2.90;;
57331;SDS011;43164;50.908;18.092;2023-03-24T00:16:13;6.30;;;2.10;;
57331;SDS011;43164;50.908;18.092;2023-03-24T00:18:41;7.20;;;2.60;;
57331;SDS011;43164;50.908;18.092;2023-03-24T00:21:09;6.90;;;2.50;;
57331;SDS011;43164;50.908;18.092;2023-03-24T00:23:38;6.60;;;2.40;;
57331;SDS011;43164;50.908;18.092;2023-03-24T00:26:11;6.70;;;2.00;;
57331;SDS011;43164;50.908;18.092;2023-03-24T00:28:44;7.60;;;2.10;;
57331;SDS011;43164;50.908;18.092;2023-03-24T00:31:14;6.40;;;2.10;;
57331;SDS011;43164;50.908;18.092;2023-03-24T00:33:43;8.40;;;2.30;;
57331;SDS011;43164;50.908;18.092;2023-03-24T00:36:18;5.60;;;2.00;;
57331;SDS011;43164;50.908;18.092;2023-03-24T00:38:48;4.90;;;1.70;;
57331;SDS011;43164;50.908;18.092;2023-03-24T00:41:15;6.20;;;2.20;;
57331;SDS011;43164;50.908;18.092;2023-03-24T00:43:48;7.50;;;2.00;;
57331;SDS011;43164;50.908;18.092;2023-03-24T00:46:17;6.50;;;1.60;;
57331;SDS011;43164;50.908;18.092;2023-03-24T00:48:58;5.90;;;1.80;;
57331;SDS011;43164;50.908;18.092;2023-03-24T00:51:33;5.20;;;1.60;;
57331;SDS011;43164;50.908;18.092;2023-03-24T00:54:04;5.90;;;1.80;;
57331;SDS011;43164;50.908;18.092;2023-03-24T00:56:33;4.50;;;1.80;;
57331;SDS011;43164;50.908;18.092;2023-03-24T00:59:02;5.20;;;1.80;;
57331;SDS011;43164;50.908;18.092;2023-03-24T01:01:30;5.20;;;1.80;;
57331;SDS011;43164;50.908;18.092;2023-03-24T01:03:59;4.70;;;1.30;;
57331;SDS011;43164;50.908;18.092;2023-03-24T01:06:27;5.60;;;2.20;;
57331;SDS011;43164;50.908;18.092;2023-03-24T01:08:57;6.30;;;1.60;;
57331;SDS011;43164;50.908;18.092;2023-03-24T01:11:25;4.80;;;1.70;;
57331;SDS011;43164;50.908;18.092;2023-03-24T01:13:53;5.10;;;1.70;;
57331;SDS011;43164;50.908;18.092;2023-03-24T01:16:21;4.60;;;1.50;;
57331;SDS011;43164;50.908;18.092;2023-03-24T01:18:50;5.10;;;1.70;;
57331;SDS011;43164;50.908;18.092;2023-03-24T01:21:18;4.10;;;1.50;;
57331;SDS011;43164;50.908;18.092;2023-03-24T01:23:45;5.50;;;1.70;;
57331;SDS011;43164;50.908;18.092;2023-03-24T01:26:14;6.30;;;1.90;;
57331;SDS011;43164;50.908;18.092;2023-03-24T01:28:41;6.10;;;2.10;;
57331;SDS011;43164;50.908;18.092;2023-03-24T01:31:10;5.00;;;1.70;;
57331;SDS011;43164;50.908;18.092;2023-03-24T01:33:38;8.00;;;2.30;;
57331;SDS011;43164;50.908;18.092;2023-03-24T01:36:07;7.40;;;2.10;;
57331;SDS011;43164;50.908;18.092;2023-03-24T01:38:34;6.30;;;2.40;;
57331;SDS011;43164;50.908;18.092;2023-03-24T01:41:01;7.30;;;2.30;;
57331;SDS011;43164;50.908;18.092;2023-03-24T01:43:32;5.90;;;2.00;;
57331;SDS011;43164;50.908;18.092;2023-03-24T01:48:36;6.30;;;2.40;;
57331;SDS011;43164;50.908;18.092;2023-03-24T01:51:22;6.40;;;2.20;;
57331;SDS011;43164;50.908;18.092;2023-03-24T01:53:58;7.90;;;2.70;;
57331;SDS011;43164;50.908;18.092;2023-03-24T01:56:33;7.80;;;2.40;;
57331;SDS011;43164;50.908;18.092;2023-03-24T02:01:34;7.50;;;2.40;;
57331;SDS011;43164;50.908;18.092;2023-03-24T02:04:03;6.40;;;2.30;;
57331;SDS011;43164;50.908;18.092;2023-03-24T02:06:33;7.30;;;2.30;;
57331;SDS011;43164;50.908;18.092;2023-03-24T02:09:02;7.20;;;2.30;;
57331;SDS011;43164;50.908;18.092;2023-03-24T02:11:31;6.50;;;2.40;;
57331;SDS011;43164;50.908;18.092;2023-03-24T02:14:02;7.50;;;2.20;;
57331;SDS011;43164;50.908;18.092;2023-03-24T02:19:31;7.50;;;2.40;;
57331;SDS011;43164;50.908;18.092;2023-03-24T02:22:13;8.90;;;2.70;;
57331;SDS011;43164;50.908;18.092;2023-03-24T02:33:41;6.30;;;2.30;;
57331;SDS011;43164;50.908;18.092;2023-03-24T02:36:41;6.80;;;2.60;;
57331;SDS011;43164;50.908;18.092;2023-03-24T02:45:15;6.90;;;2.50;;
57331;SDS011;43164;50.908;18.092;2023-03-24T02:54:09;5.20;;;2.00;;
57331;SDS011;43164;50.908;18.092;2023-03-24T02:59:34;5.90;;;2.30;;
57331;SDS011;43164;50.908;18.092;2023-03-24T03:02:13;8.00;;;2.50;;
57331;SDS011;43164;50.908;18.092;2023-03-24T03:04:45;7.00;;;1.90;;
57331;SDS011;43164;50.908;18.092;2023-03-24T03:07:31;6.30;;;2.10;;
57331;SDS011;43164;50.908;18.092;2023-03-24T03:13:08;6.80;;;2.00;;
57331;SDS011;43164;50.908;18.092;2023-03-24T03:15:43;6.90;;;2.40;;
57331;SDS011;43164;50.908;18.092;2023-03-24T03:18:18;5.90;;;2.10;;
57331;SDS011;43164;50.908;18.092;2023-03-24T03:21:02;5.30;;;2.10;;
57331;SDS011;43164;50.908;18.092;2023-03-24T03:23:37;7.40;;;2.30;;
57331;SDS011;43164;50.908;18.092;2023-03-24T03:26:15;5.80;;;1.90;;
57331;SDS011;43164;50.908;18.092;2023-03-24T03:28:45;4.80;;;2.00;;
57331;SDS011;43164;50.908;18.092;2023-03-24T03:31:18;7.00;;;2.10;;
57331;SDS011;43164;50.908;18.092;2023-03-24T03:36:58;5.80;;;1.90;;
57331;SDS011;43164;50.908;18.092;2023-03-24T03:39:34;6.30;;;1.80;;
57331;SDS011;43164;50.908;18.092;2023-03-24T03:42:04;6.40;;;2.00;;
57331;SDS011;43164;50.908;18.092;2023-03-24T03:44:32;6.00;;;2.00;;
57331;SDS011;43164;50.908;18.092;2023-03-24T03:46:59;5.80;;;2.10;;
57331;SDS011;43164;50.908;18.092;2023-03-24T03:49:27;7.00;;;2.30;;
57331;SDS011;43164;50.908;18.092;2023-03-24T03:51:55;5.30;;;2.10;;
57331;SDS011;43164;50.908;18.092;2023-03-24T03:54:23;6.20;;;2.20;;
57331;SDS011;43164;50.908;18.092;2023-03-24T03:56:53;5.70;;;2.10;;
57331;SDS011;43164;50.908;18.092;2023-03-24T03:59:26;5.80;;;2.00;;
57331;SDS011;43164;50.908;18.092;2023-03-24T04:01:56;6.80;;;1.70;;
57331;SDS011;43164;50.908;18.092;2023-03-24T04:30:19;8.30;;;2.50;;
57331;SDS011;43164;50.908;18.092;2023-03-24T04:33:13;6.70;;;2.50;;
57331;SDS011;43164;50.908;18.092;2023-03-24T04:35:49;8.70;;;2.80;;
57331;SDS011;43164;50.908;18.092;2023-03-24T04:38:22;6.70;;;2.60;;
57331;SDS011;43164;50.908;18.092;2023-03-24T04:40:52;8.60;;;3.10;;
57331;SDS011;43164;50.908;18.092;2023-03-24T04:43:22;7.30;;;3.00;;
57331;SDS011;43164;50.908;18.092;2023-03-24T04:46:02;7.60;;;2.90;;
57331;SDS011;43164;50.908;18.092;2023-03-24T04:48:30;7.80;;;3.30;;
57331;SDS011;43164;50.908;18.092;2023-03-24T04:51:01;8.30;;;3.30;;
57331;SDS011;43164;50.908;18.092;2023-03-24T04:53:28;7.30;;;3.20;;
57331;SDS011;43164;50.908;18.092;2023-03-24T04:58:42;7.70;;;3.90;;
57331;SDS011;43164;50.908;18.092;2023-03-24T05:01:10;10.20;;;4.30;;
57331;SDS011;43164;50.908;18.092;2023-03-24T05:03:36;10.40;;;3.90;;
57331;SDS011;43164;50.908;18.092;2023-03-24T05:06:04;9.20;;;3.90;;
57331;SDS011;43164;50.908;18.092;2023-03-24T05:08:35;8.30;;;3.60;;
57331;SDS011;43164;50.908;18.092;2023-03-24T05:11:04;8.10;;;3.60;;
57331;SDS011;43164;50.908;18.092;2023-03-24T05:13:31;8.40;;;3.60;;
57331;SDS011;43164;50.908;18.092;2023-03-24T05:15:58;7.50;;;3.60;;
57331;SDS011;43164;50.908;18.092;2023-03-24T05:18:26;9.60;;;4.10;;
57331;SDS011;43164;50.908;18.092;2023-03-24T05:20:54;6.90;;;3.50;;
57331;SDS011;43164;50.908;18.092;2023-03-24T05:23:21;10.00;;;4.20;;
57331;SDS011;43164;50.908;18.092;2023-03-24T05:25:49;8.80;;;4.20;;
57331;SDS011;43164;50.908;18.092;2023-03-24T05:28:17;10.50;;;4.60;;
57331;SDS011;43164;50.908;18.092;2023-03-24T05:30:44;11.30;;;4.50;;
57331;SDS011;43164;50.908;18.092;2023-03-24T05:33:13;8.60;;;4.10;;
57331;SDS011;43164;50.908;18.092;2023-03-24T05:35:40;8.00;;;3.80;;
57331;SDS011;43164;50.908;18.092;2023-03-24T05:38:07;8.60;;;4.20;;
57331;SDS011;43164;50.908;18.092;2023-03-24T05:40:35;8.50;;;4.30;;
57331;SDS011;43164;50.908;18.092;2023-03-24T05:43:01;10.00;;;5.10;;
57331;SDS011;43164;50.908;18.092;2023-03-24T05:45:29;11.00;;;5.40;;
57331;SDS011;43164;50.908;18.092;2023-03-24T05:48:04;12.50;;;5.40;;
57331;SDS011;43164;50.908;18.092;2023-03-24T05:50:32;10.80;;;5.20;;
57331;SDS011;43164;50.908;18.092;2023-03-24T05:53:00;9.60;;;4.80;;
57331;SDS011;43164;50.908;18.092;2023-03-24T05:55:28;11.70;;;5.50;;
57331;SDS011;43164;50.908;18.092;2023-03-24T05:57:55;9.90;;;4.70;;
57331;SDS011;43164;50.908;18.092;2023-03-24T06:00:23;11.00;;;5.00;;
57331;SDS011;43164;50.908;18.092;2023-03-24T06:02:51;10.40;;;5.10;;
57331;SDS011;43164;50.908;18.092;2023-03-24T06:05:19;10.50;;;5.60;;
57331;SDS011;43164;50.908;18.092;2023-03-24T06:07:47;12.50;;;5.50;;
57331;SDS011;43164;50.908;18.092;2023-03-24T06:10:16;10.90;;;4.60;;
57331;SDS011;43164;50.908;18.092;2023-03-24T06:12:45;11.80;;;5.30;;
57331;SDS011;43164;50.908;18.092;2023-03-24T06:15:20;12.10;;;5.20;;
57331;SDS011;43164;50.908;18.092;2023-03-24T06:17:50;10.00;;;4.60;;
57331;SDS011;43164;50.908;18.092;2023-03-24T06:20:25;10.60;;;5.50;;
57331;SDS011;43164;50.908;18.092;2023-03-24T06:22:56;12.60;;;5.80;;
57331;SDS011;43164;50.908;18.092;2023-03-24T06:25:31;12.40;;;5.30;;
57331;SDS011;43164;50.908;18.092;2023-03-24T06:28:00;9.80;;;5.00;;
57331;SDS011;43164;50.908;18.092;2023-03-24T06:30:31;9.40;;;5.20;;
57331;SDS011;43164;50.908;18.092;2023-03-24T06:32:59;11.00;;;5.20;;
57331;SDS011;43164;50.908;18.092;2023-03-24T06:35:30;9.90;;;4.50;;
57331;SDS011;43164;50.908;18.092;2023-03-24T06:37:58;10.10;;;4.70;;
57331;SDS011;43164;50.908;18.092;2023-03-24T06:40:25;10.40;;;5.20;;
57331;SDS011;43164;50.908;18.092;2023-03-24T06:42:53;11.50;;;5.20;;
57331;SDS011;43164;50.908;18.092;2023-03-24T06:45:21;11.20;;;5.30;;
57331;SDS011;43164;50.908;18.092;2023-03-24T06:47:50;9.70;;;4.70;;
57331;SDS011;43164;50.908;18.092;2023-03-24T06:50:28;14.30;;;6.00;;
57331;SDS011;43164;50.908;18.092;2023-03-24T06:53:02;10.80;;;5.00;;
57331;SDS011;43164;50.908;18.092;2023-03-24T06:55:30;10.60;;;4.80;;
57331;SDS011;43164;50.908;18.092;2023-03-24T06:57:58;10.90;;;4.50;;
57331;SDS011;43164;50.908;18.092;2023-03-24T07:00:26;12.10;;;5.10;;
57331;SDS011;43164;50.908;18.092;2023-03-24T07:02:56;8.90;;;4.00;;
57331;SDS011;43164;50.908;18.092;2023-03-24T07:05:23;11.40;;;5.20;;
57331;SDS011;43164;50.908;18.092;2023-03-24T07:07:50;14.10;;;5.00;;
57331;SDS011;43164;50.908;18.092;2023-03-24T07:10:18;9.00;;;4.20;;
57331;SDS011;43164;50.908;18.092;2023-03-24T07:12:46;9.40;;;3.90;;
57331;SDS011;43164;50.908;18.092;2023-03-24T07:15:15;9.70;;;3.70;;
57331;SDS011;43164;50.908;18.092;2023-03-24T07:17:43;10.00;;;4.30;;
57331;SDS011;43164;50.908;18.092;2023-03-24T07:20:11;10.10;;;4.30;;
57331;SDS011;43164;50.908;18.092;2023-03-24T07:22:39;9.00;;;4.00;;
57331;SDS011;43164;50.908;18.092;2023-03-24T07:25:07;9.30;;;3.70;;
57331;SDS011;43164;50.908;18.092;2023-03-24T07:27:36;11.30;;;5.20;;
57331;SDS011;43164;50.908;18.092;2023-03-24T07:30:04;9.00;;;3.90;;
57331;SDS011;43164;50.908;18.092;2023-03-24T07:32:33;8.90;;;4.10;;
57331;SDS011;43164;50.908;18.092;2023-03-24T07:35:13;8.80;;;4.10;;
57331;SDS011;43164;50.908;18.092;2023-03-24T07:37:44;9.30;;;4.20;;
57331;SDS011;43164;50.908;18.092;2023-03-24T07:40:12;9.30;;;4.00;;
57331;SDS011;43164;50.908;18.092;2023-03-24T07:42:41;8.40;;;4.30;;
57331;SDS011;43164;50.908;18.092;2023-03-24T07:45:11;8.00;;;4.00;;
57331;SDS011;43164;50.908;18.092;2023-03-24T07:47:40;7.90;;;3.90;;
57331;SDS011;43164;50.908;18.092;2023-03-24T07:50:10;7.90;;;3.50;;
57331;SDS011;43164;50.908;18.092;2023-03-24T07:52:39;7.30;;;3.30;;
57331;SDS011;43164;50.908;18.092;2023-03-24T07:55:09;9.80;;;3.50;;
57331;SDS011;43164;50.908;18.092;2023-03-24T07:57:37;8.50;;;3.60;;
57331;SDS011;43164;50.908;18.092;2023-03-24T08:00:07;8.00;;;3.20;;
57331;SDS011;43164;50.908;18.092;2023-03-24T08:02:44;9.80;;;3.40;;
57331;SDS011;43164;50.908;18.092;2023-03-24T08:05:13;6.70;;;3.20;;
57331;SDS011;43164;50.908;18.092;2023-03-24T08:07:41;7.60;;;2.90;;
57331;SDS011;43164;50.908;18.092;2023-03-24T08:13:57;9.30;;;3.50;;
57331;SDS011;43164;50.908;18.092;2023-03-24T08:16:27;8.40;;;2.90;;
57331;SDS011;43164;50.908;18.092;2023-03-24T08:18:58;5.80;;;2.70;;
57331;SDS011;43164;50.908;18.092;2023-03-24T08:21:30;10.40;;;3.50;;
57331;SDS011;43164;50.908;18.092;2023-03-24T08:24:05;8.20;;;2.70;;
57331;SDS011;43164;50.908;18.092;2023-03-24T08:26:39;9.80;;;3.00;;
57331;SDS011;43164;50.908;18.092;2023-03-24T08:29:09;7.90;;;3.30;;
57331;SDS011;43164;50.908;18.092;2023-03-24T08:31:45;9.00;;;3.20;;
57331;SDS011;43164;50.908;18.092;2023-03-24T08:34:20;7.40;;;2.90;;
57331;SDS011;43164;50.908;18.092;2023-03-24T08:36:54;7.30;;;2.90;;
57331;SDS011;43164;50.908;18.092;2023-03-24T08:39:28;8.10;;;2.90;;
57331;SDS011;43164;50.908;18.092;2023-03-24T08:41:59;5.80;;;2.70;;
57331;SDS011;43164;50.908;18.092;2023-03-24T08:44:33;7.00;;;2.80;;
57331;SDS011;43164;50.908;18.092;2023-03-24T08:46:59;7.00;;;2.90;;
57331;SDS011;43164;50.908;18.092;2023-03-24T08:49:27;6.30;;;2.60;;
57331;SDS011;43164;50.908;18.092;2023-03-24T08:51:55;7.40;;;3.20;;
57331;SDS011;43164;50.908;18.092;2023-03-24T08:54:23;8.20;;;3.00;;
57331;SDS011;43164;50.908;18.092;2023-03-24T08:56:51;7.00;;;3.20;;
57331;SDS011;43164;50.908;18.092;2023-03-24T08:59:19;8.70;;;3.60;;
57331;SDS011;43164;50.908;18.092;2023-03-24T09:01:46;6.10;;;2.90;;
57331;SDS011;43164;50.908;18.092;2023-03-24T09:04:14;8.60;;;3.30;;
57331;SDS011;43164;50.908;18.092;2023-03-24T09:06:42;7.70;;;2.70;;
57331;SDS011;43164;50.908;18.092;2023-03-24T09:09:09;7.60;;;2.90;;
57331;SDS011;43164;50.908;18.092;2023-03-24T09:11:36;7.30;;;3.10;;
57331;SDS011;43164;50.908;18.092;2023-03-24T09:14:04;6.20;;;2.40;;
57331;SDS011;43164;50.908;18.092;2023-03-24T09:16:32;7.50;;;2.80;;
57331;SDS011;43164;50.908;18.092;2023-03-24T09:18:59;8.00;;;2.40;;
57331;SDS011;43164;50.908;18.092;2023-03-24T09:21:27;5.90;;;2.60;;
57331;SDS011;43164;50.908;18.092;2023-03-24T09:23:55;6.30;;;2.60;;
57331;SDS011;43164;50.908;18.092;2023-03-24T09:26:22;6.90;;;2.70;;
57331;SDS011;43164;50.908;18.092;2023-03-24T09:28:51;6.10;;;2.50;;
57331;SDS011;43164;50.908;18.092;2023-03-24T09:31:19;7.50;;;2.80;;
57331;SDS011;43164;50.908;18.092;2023-03-24T09:33:46;6.20;;;2.60;;
57331;SDS011;43164;50.908;18.092;2023-03-24T09:36:14;9.50;;;4.10;;
57331;SDS011;43164;50.908;18.092;2023-03-24T09:38:41;7.40;;;3.00;;
57331;SDS011;43164;50.908;18.092;2023-03-24T09:41:18;7.10;;;2.70;;
57331;SDS011;43164;50.908;18.092;2023-03-24T09:46:46;5.60;;;2.40;;
57331;SDS011;43164;50.908;18.092;2023-03-24T09:49:21;7.00;;;2.70;;
57331;SDS011;43164;50.908;18.092;2023-03-24T09:51:52;5.80;;;2.30;;
57331;SDS011;43164;50.908;18.092;2023-03-24T10:00:19;8.10;;;2.40;;
57331;SDS011;43164;50.908;18.092;2023-03-24T10:02:48;5.50;;;1.90;;
57331;SDS011;43164;50.908;18.092;2023-03-24T10:05:20;5.00;;;2.30;;
57331;SDS011;43164;50.908;18.092;2023-03-24T10:08:22;5.70;;;2.40;;
57331;SDS011;43164;50.908;18.092;2023-03-24T10:10:56;7.20;;;2.00;;
57331;SDS011;43164;50.908;18.092;2023-03-24T10:16:47;4.70;;;1.90;;
57331;SDS011;43164;50.908;18.092;2023-03-24T10:19:36;5.70;;;1.80;;
57331;SDS011;43164;50.908;18.092;2023-03-24T10:22:17;4.90;;;1.80;;
57331;SDS011;43164;50.908;18.092;2023-03-24T10:28:02;5.70;;;1.70;;
57331;SDS011;43164;50.908;18.092;2023-03-24T10:30:38;5.90;;;1.60;;
57331;SDS011;43164;50.908;18.092;2023-03-24T10:33:11;4.30;;;1.80;;
57331;SDS011;43164;50.908;18.092;2023-03-24T10:35:41;4.90;;;1.80;;
57331;SDS011;43164;50.908;18.092;2023-03-24T10:38:21;5.00;;;1.50;;
57331;SDS011;43164;50.908;18.092;2023-03-24T10:40:49;4.10;;;1.30;;
57331;SDS011;43164;50.908;18.092;2023-03-24T10:43:17;2.50;;;1.00;;
57331;SDS011;43164;50.908;18.092;2023-03-24T10:45:47;2.90;;;1.10;;
57331;SDS011;43164;50.908;18.092;2023-03-24T10:51:16;3.60;;;1.10;;
57331;SDS011;43164;50.908;18.092;2023-03-24T10:53:45;3.90;;;1.00;;
57331;SDS011;43164;50.908;18.092;2023-03-24T10:56:15;3.40;;;1.10;;
57331;SDS011;43164;50.908;18.092;2023-03-24T10:58:43;3.90;;;1.10;;
57331;SDS011;43164;50.908;18.092;2023-03-24T11:01:23;4.80;;;1.30;;
57331;SDS011;43164;50.908;18.092;2023-03-24T11:04:03;3.30;;;1.30;;
57331;SDS011;43164;50.908;18.092;2023-03-24T11:06:35;3.80;;;1.30;;
57331;SDS011;43164;50.908;18.092;2023-03-24T11:09:09;3.30;;;1.10;;
57331;SDS011;43164;50.908;18.092;2023-03-24T11:11:47;3.80;;;1.40;;
57331;SDS011;43164;50.908;18.092;2023-03-24T11:14:21;4.00;;;1.10;;
57331;SDS011;43164;50.908;18.092;2023-03-24T11:17:00;5.10;;;1.60;;
57331;SDS011;43164;50.908;18.092;2023-03-24T11:19:51;5.60;;;1.30;;
57331;SDS011;43164;50.908;18.092;2023-03-24T11:22:20;4.00;;;1.30;;
57331;SDS011;43164;50.908;18.092;2023-03-24T11:24:50;4.90;;;1.30;;
57331;SDS011;43164;50.908;18.092;2023-03-24T11:27:21;6.00;;;1.60;;
57331;SDS011;43164;50.908;18.092;2023-03-24T11:29:51;4.50;;;1.50;;
57331;SDS011;43164;50.908;18.092;2023-03-24T11:32:23;4.10;;;1.30;;
57331;SDS011;43164;50.908;18.092;2023-03-24T11:35:03;4.40;;;1.60;;
57331;SDS011;43164;50.908;18.092;2023-03-24T11:37:33;4.20;;;1.60;;
57331;SDS011;43164;50.908;18.092;2023-03-24T11:42:44;4.30;;;1.50;;
57331;SDS011;43164;50.908;18.092;2023-03-24T11:45:26;4.30;;;1.70;;
57331;SDS011;43164;50.908;18.092;2023-03-24T11:50:52;4.20;;;1.60;;
57331;SDS011;43164;50.908;18.092;2023-03-24T11:53:24;4.60;;;1.70;;
57331;SDS011;43164;50.908;18.092;2023-03-24T11:58:49;4.80;;;1.70;;
57331;SDS011;43164;50.908;18.092;2023-03-24T12:01:55;4.30;;;1.60;;
57331;SDS011;43164;50.908;18.092;2023-03-24T12:07:34;3.90;;;1.40;;
57331;SDS011;43164;50.908;18.092;2023-03-24T12:13:09;4.50;;;1.30;;
57331;SDS011;43164;50.908;18.092;2023-03-24T12:15:39;6.70;;;1.70;;
57331;SDS011;43164;50.908;18.092;2023-03-24T12:23:59;4.40;;;1.50;;
57331;SDS011;43164;50.908;18.092;2023-03-24T12:26:32;4.10;;;1.50;;
57331;SDS011;43164;50.908;18.092;2023-03-24T12:38:04;6.30;;;1.40;;
57331;SDS011;43164;50.908;18.092;2023-03-24T12:49:15;12.50;;;5.50;;
57331;SDS011;43164;50.908;18.092;2023-03-24T12:57:13;18.20;;;8.80;;
57331;SDS011;43164;50.908;18.092;2023-03-24T12:59:53;24.50;;;12.00;;
57331;SDS011;43164;50.908;18.092;2023-03-24T13:02:29;20.30;;;9.90;;
57331;SDS011;43164;50.908;18.092;2023-03-24T13:05:06;10.30;;;4.70;;
57331;SDS011;43164;50.908;18.092;2023-03-24T13:07:48;17.90;;;8.90;;
57331;SDS011;43164;50.908;18.092;2023-03-24T13:10:29;10.00;;;5.20;;
57331;SDS011;43164;50.908;18.092;2023-03-24T13:18:38;26.60;;;11.80;;
57331;SDS011;43164;50.908;18.092;2023-03-24T13:21:13;25.70;;;11.20;;
57331;SDS011;43164;50.908;18.092;2023-03-24T13:23:50;18.00;;;6.70;;
57331;SDS011;43164;50.908;18.092;2023-03-24T13:31:38;8.80;;;3.20;;
57331;SDS011;43164;50.908;18.092;2023-03-24T13:34:23;8.50;;;3.80;;
57331;SDS011;43164;50.908;18.092;2023-03-24T13:39:33;8.70;;;3.10;;
57331;SDS011;43164;50.908;18.092;2023-03-24T13:42:02;7.10;;;3.70;;
57331;SDS011;43164;50.908;18.092;2023-03-24T13:44:36;6.70;;;3.40;;
57331;SDS011;43164;50.908;18.092;2023-03-24T13:47:07;6.70;;;2.80;;
57331;SDS011;43164;50.908;18.092;2023-03-24T13:49:44;10.50;;;4.40;;
57331;SDS011;43164;50.908;18.092;2023-03-24T13:55:01;7.00;;;2.90;;
57331;SDS011;43164;50.908;18.092;2023-03-24T13:57:51;8.80;;;3.40;;
57331;SDS011;43164;50.908;18.092;2023-03-24T14:03:34;8.80;;;4.10;;
57331;SDS011;43164;50.908;18.092;2023-03-24T14:06:08;7.10;;;2.60;;
57331;SDS011;43164;50.908;18.092;2023-03-24T14:08:53;5.60;;;2.60;;
57331;SDS011;43164;50.908;18.092;2023-03-24T14:14:16;6.20;;;2.50;;
57331;SDS011;43164;50.908;18.092;2023-03-24T14:16:49;5.30;;;2.40;;
57331;SDS011;43164;50.908;18.092;2023-03-24T14:19:34;7.80;;;2.40;;
57331;SDS011;43164;50.908;18.092;2023-03-24T14:22:09;7.40;;;1.90;;
57331;SDS011;43164;50.908;18.092;2023-03-24T14:25:19;5.50;;;1.80;;
57331;SDS011;43164;50.908;18.092;2023-03-24T14:31:37;5.70;;;2.30;;
57331;SDS011;43164;50.908;18.092;2023-03-24T14:45:03;11.40;;;3.20;;
57331;SDS011;43164;50.908;18.092;2023-03-24T14:53:43;6.00;;;2.60;;
57331;SDS011;43164;50.908;18.092;2023-03-24T15:14:23;3.60;;;1.50;;
57331;SDS011;43164;50.908;18.092;2023-03-24T15:17:27;5.30;;;1.50;;
57331;SDS011;43164;50.908;18.092;2023-03-24T15:19:54;3.80;;;1.30;;
57331;SDS011;43164;50.908;18.092;2023-03-24T15:22:23;3.50;;;1.20;;
57331;SDS011;43164;50.908;18.092;2023-03-24T15:24:53;4.60;;;1.20;;
57331;SDS011;43164;50.908;18.092;2023-03-24T15:27:50;3.30;;;1.20;;
57331;SDS011;43164;50.908;18.092;2023-03-24T15:30:28;4.60;;;1.30;;
57331;SDS011;43164;50.908;18.092;2023-03-24T15:32:57;6.30;;;1.20;;
57331;SDS011;43164;50.908;18.092;2023-03-24T15:38:49;3.10;;;1.10;;
57331;SDS011;43164;50.908;18.092;2023-03-24T15:41:45;3.30;;;1.20;;
57331;SDS011;43164;50.908;18.092;2023-03-24T15:48:37;2.80;;;1.00;;
57331;SDS011;43164;50.908;18.092;2023-03-24T15:57:59;3.20;;;0.90;;
57331;SDS011;43164;50.908;18.092;2023-03-24T16:11:31;4.60;;;1.10;;
57331;SDS011;43164;50.908;18.092;2023-03-24T16:17:01;4.30;;;1.20;;
57331;SDS011;43164;50.908;18.092;2023-03-24T16:19:51;3.30;;;1.20;;
57331;SDS011;43164;50.908;18.092;2023-03-24T16:26:17;3.50;;;1.10;;
57331;SDS011;43164;50.908;18.092;2023-03-24T16:32:02;5.80;;;1.40;;
57331;SDS011;43164;50.908;18.092;2023-03-24T16:34:35;4.60;;;1.60;;
57331;SDS011;43164;50.908;18.092;2023-03-24T16:37:13;5.50;;;1.40;;
57331;SDS011;43164;50.908;18.092;2023-03-24T16:47:22;3.50;;;1.40;;
57331;SDS011;43164;50.908;18.092;2023-03-24T16:49:52;6.10;;;1.50;;
57331;SDS011;43164;50.908;18.092;2023-03-24T16:52:24;3.80;;;1.30;;
57331;SDS011;43164;50.908;18.092;2023-03-24T16:58:35;5.10;;;1.30;;
57331;SDS011;43164;50.908;18.092;2023-03-24T17:04:15;4.90;;;1.70;;
57331;SDS011;43164;50.908;18.092;2023-03-24T17:10:32;4.10;;;1.40;;
57331;SDS011;43164;50.908;18.092;2023-03-24T17:13:03;4.50;;;1.60;;
57331;SDS011;43164;50.908;18.092;2023-03-24T17:15:48;4.80;;;1.40;;
57331;SDS011;43164;50.908;18.092;2023-03-24T17:18:23;3.80;;;1.20;;
57331;SDS011;43164;50.908;18.092;2023-03-24T17:30:09;2.40;;;0.90;;
57331;SDS011;43164;50.908;18.092;2023-03-24T17:33:10;3.50;;;1.30;;
57331;SDS011;43164;50.908;18.092;2023-03-24T17:35:49;4.00;;;1.20;;
57331;SDS011;43164;50.908;18.092;2023-03-24T17:38:22;3.70;;;1.10;;
57331;SDS011;43164;50.908;18.092;2023-03-24T17:57:57;4.70;;;1.10;;
57331;SDS011;43164;50.908;18.092;2023-03-24T18:00:34;4.80;;;1.10;;
57331;SDS011;43164;50.908;18.092;2023-03-24T18:03:08;4.60;;;1.50;;
57331;SDS011;43164;50.908;18.092;2023-03-24T18:05:46;5.00;;;1.30;;
57331;SDS011;43164;50.908;18.092;2023-03-24T18:19:10;4.50;;;1.10;;
57331;SDS011;43164;50.908;18.092;2023-03-24T18:43:30;3.20;;;1.10;;
57331;SDS011;43164;50.908;18.092;2023-03-24T18:46:27;4.10;;;1.10;;
57331;SDS011;43164;50.908;18.092;2023-03-24T18:48:58;3.60;;;1.10;;
57331;SDS011;43164;50.908;18.092;2023-03-24T19:10:42;4.90;;;1.60;;
57331;SDS011;43164;50.908;18.092;2023-03-24T19:20:46;4.80;;;1.20;;
57331;SDS011;43164;50.908;18.092;2023-03-24T19:30:55;7.30;;;1.60;;
57331;SDS011;43164;50.908;18.092;2023-03-24T20:09:54;5.10;;;1.40;;
57331;SDS011;43164;50.908;18.092;2023-03-24T20:15:49;2.60;;;0.60;;
57331;SDS011;43164;50.908;18.092;2023-03-24T20:18:19;2.10;;;0.50;;
57331;SDS011;43164;50.908;18.092;2023-03-24T20:20:54;3.30;;;0.70;;
57331;SDS011;43164;50.908;18.092;2023-03-24T20:23:33;2.10;;;0.70;;
57331;SDS011;43164;50.908;18.092;2023-03-24T20:26:07;5.00;;;0.60;;
57331;SDS011;43164;50.908;18.092;2023-03-24T20:29:14;2.30;;;0.70;;
57331;SDS011;43164;50.908;18.092;2023-03-24T20:32:00;1.70;;;0.60;;
57331;SDS011;43164;50.908;18.092;2023-03-24T20:34:36;2.30;;;0.60;;
57331;SDS011;43164;50.908;18.092;2023-03-24T20:37:08;3.70;;;0.70;;
57331;SDS011;43164;50.908;18.092;2023-03-24T20:39:42;3.10;;;0.60;;
57331;SDS011;43164;50.908;18.092;2023-03-24T20:42:15;2.90;;;0.70;;
57331;SDS011;43164;50.908;18.092;2023-03-24T20:44:56;2.50;;;0.60;;
57331;SDS011;43164;50.908;18.092;2023-03-24T20:47:27;5.00;;;1.20;;
57331;SDS011;43164;50.908;18.092;2023-03-24T20:50:00;5.70;;;1.20;;
57331;SDS011;43164;50.908;18.092;2023-03-24T20:52:31;6.40;;;1.50;;
57331;SDS011;43164;50.908;18.092;2023-03-24T20:55:02;7.20;;;1.90;;
57331;SDS011;43164;50.908;18.092;2023-03-24T20:57:32;5.40;;;1.40;;
57331;SDS011;43164;50.908;18.092;2023-03-24T21:00:05;3.50;;;0.90;;
57331;SDS011;43164;50.908;18.092;2023-03-24T21:02:42;2.80;;;0.70;;
57331;SDS011;43164;50.908;18.092;2023-03-24T21:05:19;4.20;;;0.90;;
57331;SDS011;43164;50.908;18.092;2023-03-24T21:07:51;1.90;;;0.70;;
57331;SDS011;43164;50.908;18.092;2023-03-24T21:10:24;2.10;;;0.70;;
57331;SDS011;43164;50.908;18.092;2023-03-24T21:12:57;2.60;;;0.80;;
57331;SDS011;43164;50.908;18.092;2023-03-24T21:15:32;3.00;;;0.90;;
57331;SDS011;43164;50.908;18.092;2023-03-24T21:28:32;4.80;;;1.00;;
57331;SDS011;43164;50.908;18.092;2023-03-24T21:34:02;3.30;;;1.00;;
57331;SDS011;43164;50.908;18.092;2023-03-24T21:39:55;3.70;;;1.00;;
57331;SDS011;43164;50.908;18.092;2023-03-24T21:45:42;2.90;;;0.80;;